Mimoso do Sul, Brazil
Current Conditions -  °F | °C
As of 11:00 PM on Tuesday 21 Oct 2014 (Local Time) from SBCP Reporting Station
Overcast Overcast  
Wind Chill: 70°   Ceiling: 9000
Heat Index: 70°   Visibility: 6mi
Dew Point: 64°   Wind: 13mph
Humidity: 83%   Direction: 210°SSW
Pressure: 30.15"   Gusts: NA
Location:  21.06°S, 41.37°W
Report Text: SBCP 220100Z 21011KT 9999 SCT020 OVC090 21/18 Q1021
Loading
Personal Weather Stations






























Interactive Weather Map
Tropical Storm Tracking
New forecast layout! Learn more

10-Day Weather Forecast

Advertisements
Track Severe Weather on mobile